sensor_id;sensor_type;location;lat;lon;timestamp;pressure;altitude;pressure_sealevel;temperature;humidity
76448;BME280;65284;51.040;13.722;2023-02-28T00:01:04;101313.69;;;-0.38;77.37
76448;BME280;65284;51.040;13.722;2023-02-28T00:03:30;101303.25;;;-0.38;76.81
76448;BME280;65284;51.040;13.722;2023-02-28T00:05:56;101309.19;;;-0.35;77.23
76448;BME280;65284;51.040;13.722;2023-02-28T00:08:23;101310.03;;;-0.34;76.84
76448;BME280;65284;51.040;13.722;2023-02-28T00:10:49;101307.47;;;-0.36;76.85
76448;BME280;65284;51.040;13.722;2023-02-28T00:13:15;101305.94;;;-0.41;77.05
76448;BME280;65284;51.040;13.722;2023-02-28T00:15:42;101305.19;;;-0.43;76.42
76448;BME280;65284;51.040;13.722;2023-02-28T00:18:10;101305.31;;;-0.47;76.63
76448;BME280;65284;51.040;13.722;2023-02-28T00:20:37;101305.19;;;-0.43;76.64
76448;BME280;65284;51.040;13.722;2023-02-28T00:23:04;101303.56;;;-0.48;76.48
76448;BME280;65284;51.040;13.722;2023-02-28T00:25:30;101294.84;;;-0.47;76.96
76448;BME280;65284;51.040;13.722;2023-02-28T00:27:57;101294.91;;;-0.48;77.09
76448;BME280;65284;51.040;13.722;2023-02-28T00:30:23;101296.75;;;-0.50;77.04
76448;BME280;65284;51.040;13.722;2023-02-28T00:32:50;101294.97;;;-0.50;77.28
76448;BME280;65284;51.040;13.722;2023-02-28T00:35:17;101295.88;;;-0.51;77.12
76448;BME280;65284;51.040;13.722;2023-02-28T00:37:43;101295.88;;;-0.51;77.25
76448;BME280;65284;51.040;13.722;2023-02-28T00:40:10;101295.97;;;-0.54;77.28
76448;BME280;65284;51.040;13.722;2023-02-28T00:42:38;101303.94;;;-0.57;77.02
76448;BME280;65284;51.040;13.722;2023-02-28T00:45:05;101290.00;;;-0.56;77.93
76448;BME280;65284;51.040;13.722;2023-02-28T00:47:32;101306.59;;;-0.58;77.30
76448;BME280;65284;51.040;13.722;2023-02-28T00:49:58;101306.59;;;-0.58;78.27
76448;BME280;65284;51.040;13.722;2023-02-28T00:52:25;101297.94;;;-0.59;77.38
76448;BME280;65284;51.040;13.722;2023-02-28T00:54:51;101294.56;;;-0.62;77.39
76448;BME280;65284;51.040;13.722;2023-02-28T00:57:18;101302.47;;;-0.64;77.96
76448;BME280;65284;51.040;13.722;2023-02-28T00:59:44;101298.28;;;-0.68;78.91
76448;BME280;65284;51.040;13.722;2023-02-28T01:02:11;101290.47;;;-0.68;78.17
76448;BME280;65284;51.040;13.722;2023-02-28T01:04:37;101297.50;;;-0.70;78.25
76448;BME280;65284;51.040;13.722;2023-02-28T01:07:03;101294.88;;;-0.70;78.29
76448;BME280;65284;51.040;13.722;2023-02-28T01:09:30;101297.50;;;-0.70;78.30
76448;BME280;65284;51.040;13.722;2023-02-28T01:11:57;101297.50;;;-0.70;77.90
76448;BME280;65284;51.040;13.722;2023-02-28T01:14:23;101300.09;;;-0.70;78.29
76448;BME280;65284;51.040;13.722;2023-02-28T01:16:49;101298.38;;;-0.71;78.07
76448;BME280;65284;51.040;13.722;2023-02-28T01:19:16;101293.97;;;-0.69;78.54
76448;BME280;65284;51.040;13.722;2023-02-28T01:21:42;101298.34;;;-0.70;78.21
76448;BME280;65284;51.040;13.722;2023-02-28T01:24:08;101292.28;;;-0.70;78.51
76448;BME280;65284;51.040;13.722;2023-02-28T01:26:35;101294.88;;;-0.70;78.96
76448;BME280;65284;51.040;13.722;2023-02-28T01:29:02;101300.03;;;-0.69;78.41
76448;BME280;65284;51.040;13.722;2023-02-28T01:31:29;101287.06;;;-0.70;79.04
76448;BME280;65284;51.040;13.722;2023-02-28T01:33:56;101297.53;;;-0.72;78.50
76448;BME280;65284;51.040;13.722;2023-02-28T01:36:23;101288.84;;;-0.72;78.99
76448;BME280;65284;51.040;13.722;2023-02-28T01:38:51;101285.31;;;-0.71;79.38
76448;BME280;65284;51.040;13.722;2023-02-28T01:41:21;101287.16;;;-0.73;79.00
76448;BME280;65284;51.040;13.722;2023-02-28T01:46:14;101282.91;;;-0.76;78.71
76448;BME280;65284;51.040;13.722;2023-02-28T01:48:44;101281.25;;;-0.78;78.42
76448;BME280;65284;51.040;13.722;2023-02-28T01:51:22;101282.19;;;-0.79;78.88
76448;BME280;65284;51.040;13.722;2023-02-28T01:54:05;101287.41;;;-0.79;78.38
76448;BME280;65284;51.040;13.722;2023-02-28T01:56:44;101288.25;;;-0.79;78.20
76448;BME280;65284;51.040;13.722;2023-02-28T01:59:16;101283.88;;;-0.78;78.75
76448;BME280;65284;51.040;13.722;2023-02-28T02:01:46;101285.69;;;-0.80;78.75
76448;BME280;65284;51.040;13.722;2023-02-28T02:04:13;101273.56;;;-0.81;79.39
76448;BME280;65284;51.040;13.722;2023-02-28T02:06:44;101276.16;;;-0.81;79.24
76448;BME280;65284;51.040;13.722;2023-02-28T02:09:12;101277.09;;;-0.82;79.13
76448;BME280;65284;51.040;13.722;2023-02-28T02:11:41;101278.81;;;-0.83;79.61
76448;BME280;65284;51.040;13.722;2023-02-28T02:14:37;101277.13;;;-0.84;79.31
76448;BME280;65284;51.040;13.722;2023-02-28T02:17:15;101278.88;;;-0.84;79.04
76448;BME280;65284;51.040;13.722;2023-02-28T02:25:55;101273.66;;;-0.84;80.22
76448;BME280;65284;51.040;13.722;2023-02-28T02:28:41;101277.19;;;-0.85;79.77
76448;BME280;65284;51.040;13.722;2023-02-28T02:40:03;101265.16;;;-0.89;79.50
76448;BME280;65284;51.040;13.722;2023-02-28T02:42:56;101263.47;;;-0.90;79.25
76448;BME280;65284;51.040;13.722;2023-02-28T02:45:33;101269.53;;;-0.90;79.08
76448;BME280;65284;51.040;13.722;2023-02-28T02:48:03;101278.19;;;-0.89;79.49
76448;BME280;65284;51.040;13.722;2023-02-28T02:50:36;101278.28;;;-0.91;79.31
76448;BME280;65284;51.040;13.722;2023-02-28T02:53:06;101267.88;;;-0.93;79.50
76448;BME280;65284;51.040;13.722;2023-02-28T02:55:38;101277.41;;;-0.92;79.65
76448;BME280;65284;51.040;13.722;2023-02-28T02:58:10;101282.69;;;-0.93;79.11
76448;BME280;65284;51.040;13.722;2023-02-28T03:00:43;101277.41;;;-0.92;79.93
76448;BME280;65284;51.040;13.722;2023-02-28T03:03:11;101276.63;;;-0.94;80.04
76448;BME280;65284;51.040;13.722;2023-02-28T03:05:42;101279.22;;;-0.94;80.25
76448;BME280;65284;51.040;13.722;2023-02-28T03:08:10;101277.53;;;-0.95;79.71
76448;BME280;65284;51.040;13.722;2023-02-28T03:10:42;101291.47;;;-0.96;79.69
76448;BME280;65284;51.040;13.722;2023-02-28T03:13:22;101279.34;;;-0.97;79.76
76448;BME280;65284;51.040;13.722;2023-02-28T03:16:11;101277.69;;;-0.99;79.81
76448;BME280;65284;51.040;13.722;2023-02-28T03:22:11;101279.69;;;-1.06;80.29
76448;BME280;65284;51.040;13.722;2023-02-28T03:25:06;101281.47;;;-1.08;80.60
76448;BME280;65284;51.040;13.722;2023-02-28T03:27:45;101274.63;;;-1.10;80.07
76448;BME280;65284;51.040;13.722;2023-02-28T03:30:47;101276.41;;;-1.12;80.40
76448;BME280;65284;51.040;13.722;2023-02-28T03:33:35;101273.06;;;-1.16;81.13
76448;BME280;65284;51.040;13.722;2023-02-28T03:36:06;101273.06;;;-1.16;81.05
76448;BME280;65284;51.040;13.722;2023-02-28T03:38:38;101279.31;;;-1.20;80.71
76448;BME280;65284;51.040;13.722;2023-02-28T03:41:16;101266.41;;;-1.23;80.79
76448;BME280;65284;51.040;13.722;2023-02-28T03:43:53;101276.94;;;-1.26;80.39
76448;BME280;65284;51.040;13.722;2023-02-28T03:46:23;101276.19;;;-1.30;80.69
76448;BME280;65284;51.040;13.722;2023-02-28T03:48:56;101276.19;;;-1.30;81.15
76448;BME280;65284;51.040;13.722;2023-02-28T03:51:26;101278.94;;;-1.34;81.11
76448;BME280;65284;51.040;13.722;2023-02-28T03:53:57;101280.75;;;-1.37;81.23
76448;BME280;65284;51.040;13.722;2023-02-28T03:56:40;101281.75;;;-1.41;81.23
76448;BME280;65284;51.040;13.722;2023-02-28T03:59:16;101281.91;;;-1.45;80.96
76448;BME280;65284;51.040;13.722;2023-02-28T04:01:46;101286.38;;;-1.49;81.46
76448;BME280;65284;51.040;13.722;2023-02-28T04:04:14;101285.66;;;-1.52;81.21
76448;BME280;65284;51.040;13.722;2023-02-28T04:06:41;101288.28;;;-1.54;81.47
76448;BME280;65284;51.040;13.722;2023-02-28T04:09:11;101291.91;;;-1.58;81.51
76448;BME280;65284;51.040;13.722;2023-02-28T04:11:45;101298.13;;;-1.62;81.55
76448;BME280;65284;51.040;13.722;2023-02-28T04:14:14;101287.75;;;-1.64;80.92
76448;BME280;65284;51.040;13.722;2023-02-28T04:16:41;101303.47;;;-1.67;80.99
76448;BME280;65284;51.040;13.722;2023-02-28T04:19:09;101300.13;;;-1.70;81.10
76448;BME280;65284;51.040;13.722;2023-02-28T04:21:42;101300.16;;;-1.72;80.67
76448;BME280;65284;51.040;13.722;2023-02-28T04:24:11;101300.16;;;-1.72;81.30
76448;BME280;65284;51.040;13.722;2023-02-28T04:26:42;101306.34;;;-1.74;81.07
76448;BME280;65284;51.040;13.722;2023-02-28T04:29:17;101308.16;;;-1.76;81.21
76448;BME280;65284;51.040;13.722;2023-02-28T04:31:44;101306.47;;;-1.77;81.48
76448;BME280;65284;51.040;13.722;2023-02-28T04:34:10;101311.75;;;-1.80;81.12
76448;BME280;65284;51.040;13.722;2023-02-28T04:36:37;101304.84;;;-1.81;81.05
76448;BME280;65284;51.040;13.722;2023-02-28T04:39:03;101311.94;;;-1.87;81.06
76448;BME280;65284;51.040;13.722;2023-02-28T04:41:30;101303.34;;;-1.89;81.42
76448;BME280;65284;51.040;13.722;2023-02-28T04:43:58;101310.34;;;-1.91;81.30
76448;BME280;65284;51.040;13.722;2023-02-28T04:46:25;101314.75;;;-1.93;80.86
76448;BME280;65284;51.040;13.722;2023-02-28T04:48:51;101313.97;;;-1.95;81.42
76448;BME280;65284;51.040;13.722;2023-02-28T04:51:18;101315.75;;;-1.97;81.49
76448;BME280;65284;51.040;13.722;2023-02-28T04:53:46;101319.25;;;-1.98;81.70
76448;BME280;65284;51.040;13.722;2023-02-28T04:56:14;101311.50;;;-1.99;81.43
76448;BME280;65284;51.040;13.722;2023-02-28T04:58:42;101308.94;;;-2.01;81.80
76448;BME280;65284;51.040;13.722;2023-02-28T05:01:24;101309.84;;;-2.02;81.76
76448;BME280;65284;51.040;13.722;2023-02-28T05:03:51;101314.25;;;-2.04;81.78
76448;BME280;65284;51.040;13.722;2023-02-28T05:06:19;101317.81;;;-2.07;81.72
76448;BME280;65284;51.040;13.722;2023-02-28T05:08:46;101317.84;;;-2.08;81.92
76448;BME280;65284;51.040;13.722;2023-02-28T05:11:16;101316.16;;;-2.09;82.25
76448;BME280;65284;51.040;13.722;2023-02-28T05:13:44;101314.41;;;-2.10;82.83
76448;BME280;65284;51.040;13.722;2023-02-28T05:16:10;101319.72;;;-2.13;83.46
76448;BME280;65284;51.040;13.722;2023-02-28T05:18:37;101325.09;;;-2.18;82.85
76448;BME280;65284;51.040;13.722;2023-02-28T05:21:04;101321.72;;;-2.21;83.29
76448;BME280;65284;51.040;13.722;2023-02-28T05:23:32;101323.44;;;-2.20;83.31
76448;BME280;65284;51.040;13.722;2023-02-28T05:25:58;101324.34;;;-2.21;82.78
76448;BME280;65284;51.040;13.722;2023-02-28T05:28:24;101327.03;;;-2.24;83.77
76448;BME280;65284;51.040;13.722;2023-02-28T05:30:51;101328.72;;;-2.23;83.57
76448;BME280;65284;51.040;13.722;2023-02-28T05:33:17;101332.25;;;-2.24;83.90
76448;BME280;65284;51.040;13.722;2023-02-28T05:35:44;101327.13;;;-2.27;84.17
76448;BME280;65284;51.040;13.722;2023-02-28T05:38:10;101331.44;;;-2.28;83.86
76448;BME280;65284;51.040;13.722;2023-02-28T05:40:38;101332.44;;;-2.31;84.16
76448;BME280;65284;51.040;13.722;2023-02-28T05:43:10;101339.41;;;-2.33;84.35
76448;BME280;65284;51.040;13.722;2023-02-28T05:45:36;101338.56;;;-2.33;84.41
76448;BME280;65284;51.040;13.722;2023-02-28T05:48:03;101339.50;;;-2.36;84.88
76448;BME280;65284;51.040;13.722;2023-02-28T05:50:29;101331.63;;;-2.34;84.69
76448;BME280;65284;51.040;13.722;2023-02-28T05:52:55;101333.41;;;-2.35;84.55
76448;BME280;65284;51.040;13.722;2023-02-28T05:55:22;101339.50;;;-2.36;85.01
76448;BME280;65284;51.040;13.722;2023-02-28T05:57:48;101345.66;;;-2.38;85.15
76448;BME280;65284;51.040;13.722;2023-02-28T06:00:15;101343.06;;;-2.40;84.59
76448;BME280;65284;51.040;13.722;2023-02-28T06:02:43;101343.13;;;-2.41;85.05
76448;BME280;65284;51.040;13.722;2023-02-28T06:05:14;101347.50;;;-2.42;85.46
76448;BME280;65284;51.040;13.722;2023-02-28T06:07:41;101349.19;;;-2.41;85.24
76448;BME280;65284;51.040;13.722;2023-02-28T06:10:10;101351.69;;;-2.38;84.83
76448;BME280;65284;51.040;13.722;2023-02-28T06:12:37;101358.59;;;-2.37;84.36
76448;BME280;65284;51.040;13.722;2023-02-28T06:15:05;101352.53;;;-2.37;84.38
76448;BME280;65284;51.040;13.722;2023-02-28T06:17:32;101360.31;;;-2.36;84.80
76448;BME280;65284;51.040;13.722;2023-02-28T06:19:58;101355.94;;;-2.34;84.27
76448;BME280;65284;51.040;13.722;2023-02-28T06:22:25;101355.22;;;-2.39;84.86
76448;BME280;65284;51.040;13.722;2023-02-28T06:24:51;101366.56;;;-2.41;85.06
76448;BME280;65284;51.040;13.722;2023-02-28T06:27:18;101365.69;;;-2.42;85.83
76448;BME280;65284;51.040;13.722;2023-02-28T06:29:46;101364.78;;;-2.41;85.64
76448;BME280;65284;51.040;13.722;2023-02-28T06:32:13;101376.91;;;-2.40;85.42
76448;BME280;65284;51.040;13.722;2023-02-28T06:34:39;101379.41;;;-2.37;85.51
76448;BME280;65284;51.040;13.722;2023-02-28T06:37:06;101384.56;;;-2.34;85.54
76448;BME280;65284;51.040;13.722;2023-02-28T06:39:32;101390.41;;;-2.27;85.51
76448;BME280;65284;51.040;13.722;2023-02-28T06:41:59;101392.13;;;-2.26;85.50
76448;BME280;65284;51.040;13.722;2023-02-28T06:44:25;101395.63;;;-1.99;86.69
76448;BME280;65284;51.040;13.722;2023-02-28T06:46:52;101388.16;;;-2.10;85.74
76448;BME280;65284;51.040;13.722;2023-02-28T06:49:18;101395.25;;;-2.15;84.98
76448;BME280;65284;51.040;13.722;2023-02-28T06:51:45;101404.75;;;-2.14;84.89
76448;BME280;65284;51.040;13.722;2023-02-28T06:54:11;101406.06;;;-1.99;85.05
76448;BME280;65284;51.040;13.722;2023-02-28T06:56:38;101405.16;;;-1.98;85.43
76448;BME280;65284;51.040;13.722;2023-02-28T06:59:05;101408.72;;;-2.00;85.48
76448;BME280;65284;51.040;13.722;2023-02-28T07:01:32;101419.25;;;-2.05;84.53
76448;BME280;65284;51.040;13.722;2023-02-28T07:03:59;101410.00;;;-1.86;84.15
76448;BME280;65284;51.040;13.722;2023-02-28T07:06:26;101415.41;;;-1.92;82.95
76448;BME280;65284;51.040;13.722;2023-02-28T07:08:54;101416.28;;;-1.93;82.33
76448;BME280;65284;51.040;13.722;2023-02-28T07:11:22;101416.09;;;-1.87;82.03
76448;BME280;65284;51.040;13.722;2023-02-28T07:13:52;101408.66;;;-1.71;81.61
76448;BME280;65284;51.040;13.722;2023-02-28T07:16:19;101412.47;;;-1.54;81.37
76448;BME280;65284;51.040;13.722;2023-02-28T07:18:46;101408.13;;;-1.27;82.10
76448;BME280;65284;51.040;13.722;2023-02-28T07:21:12;101421.34;;;-1.33;80.31
76448;BME280;65284;51.040;13.722;2023-02-28T07:23:39;101422.97;;;-1.29;79.50
76448;BME280;65284;51.040;13.722;2023-02-28T07:26:11;101416.22;;;-1.10;78.91
76448;BME280;65284;51.040;13.722;2023-02-28T07:28:41;101405.13;;;-1.15;78.53
76448;BME280;65284;51.040;13.722;2023-02-28T07:31:11;101405.41;;;-1.24;76.61
76448;BME280;65284;51.040;13.722;2023-02-28T07:33:38;101411.63;;;-1.02;76.19
76448;BME280;65284;51.040;13.722;2023-02-28T07:36:07;101416.72;;;-0.99;76.08
76448;BME280;65284;51.040;13.722;2023-02-28T07:38:37;101406.19;;;-0.96;76.24
76448;BME280;65284;51.040;13.722;2023-02-28T07:41:03;101418.88;;;-0.85;76.27
76448;BME280;65284;51.040;13.722;2023-02-28T07:43:31;101416.41;;;-0.89;76.42
76448;BME280;65284;51.040;13.722;2023-02-28T07:46:07;101410.47;;;-0.68;75.33
76448;BME280;65284;51.040;13.722;2023-02-28T07:48:33;101414.59;;;-0.87;75.09
76448;BME280;65284;51.040;13.722;2023-02-28T07:51:00;101413.13;;;-0.95;76.08
76448;BME280;65284;51.040;13.722;2023-02-28T07:53:28;101416.09;;;-0.80;75.21
76448;BME280;65284;51.040;13.722;2023-02-28T07:55:58;101414.25;;;-0.77;74.89
76448;BME280;65284;51.040;13.722;2023-02-28T07:58:25;101418.03;;;-0.85;74.86
76448;BME280;65284;51.040;13.722;2023-02-28T08:00:52;101424.50;;;-0.72;75.79
76448;BME280;65284;51.040;13.722;2023-02-28T08:03:20;101425.00;;;-0.37;78.65
76448;BME280;65284;51.040;13.722;2023-02-28T08:05:47;101421.78;;;-0.20;77.06
76448;BME280;65284;51.040;13.722;2023-02-28T08:08:15;101417.69;;;-0.28;73.76
76448;BME280;65284;51.040;13.722;2023-02-28T08:10:42;101424.31;;;-0.42;73.52
76448;BME280;65284;51.040;13.722;2023-02-28T08:13:08;101416.59;;;-0.46;73.42
76448;BME280;65284;51.040;13.722;2023-02-28T08:15:35;101422.66;;;-0.45;73.83
76448;BME280;65284;51.040;13.722;2023-02-28T08:18:02;101422.97;;;-0.29;74.75
76448;BME280;65284;51.040;13.722;2023-02-28T08:20:28;101423.75;;;-0.27;74.22
76448;BME280;65284;51.040;13.722;2023-02-28T08:22:55;101419.78;;;-0.37;73.22
76448;BME280;65284;51.040;13.722;2023-02-28T08:25:21;101416.13;;;-0.33;73.77
76448;BME280;65284;51.040;13.722;2023-02-28T08:27:50;101418.63;;;-0.30;72.50
76448;BME280;65284;51.040;13.722;2023-02-28T08:30:17;101418.88;;;-0.36;74.14
76448;BME280;65284;51.040;13.722;2023-02-28T08:32:43;101424.88;;;-0.34;73.35
76448;BME280;65284;51.040;13.722;2023-02-28T08:35:10;101424.28;;;-0.41;73.63
76448;BME280;65284;51.040;13.722;2023-02-28T08:37:37;101424.88;;;-0.34;73.84
76448;BME280;65284;51.040;13.722;2023-02-28T08:40:03;101422.63;;;-0.20;74.50
76448;BME280;65284;51.040;13.722;2023-02-28T08:42:32;101422.38;;;-0.14;74.17
76448;BME280;65284;51.040;13.722;2023-02-28T08:44:58;101430.94;;;-0.10;73.13
76448;BME280;65284;51.040;13.722;2023-02-28T08:47:25;101432.72;;;-0.11;72.60
76448;BME280;65284;51.040;13.722;2023-02-28T08:49:51;101433.41;;;-0.06;72.83
76448;BME280;65284;51.040;13.722;2023-02-28T08:52:18;101428.97;;;-0.04;72.44
76448;BME280;65284;51.040;13.722;2023-02-28T08:54:44;101424.25;;;0.06;72.41
76448;BME280;65284;51.040;13.722;2023-02-28T08:57:11;101430.09;;;0.13;71.73
76448;BME280;65284;51.040;13.722;2023-02-28T08:59:37;101428.03;;;0.21;72.63
76448;BME280;65284;51.040;13.722;2023-02-28T09:02:04;101416.59;;;0.23;72.18
76448;BME280;65284;51.040;13.722;2023-02-28T09:04:30;101420.59;;;0.32;70.49
76448;BME280;65284;51.040;13.722;2023-02-28T09:06:57;101427.16;;;0.64;71.16
76448;BME280;65284;51.040;13.722;2023-02-28T09:09:23;101424.84;;;0.79;69.75
76448;BME280;65284;51.040;13.722;2023-02-28T09:11:49;101420.84;;;0.70;67.06
76448;BME280;65284;51.040;13.722;2023-02-28T09:14:16;101418.63;;;0.81;67.22
76448;BME280;65284;51.040;13.722;2023-02-28T09:16:43;101425.56;;;0.82;65.90
76448;BME280;65284;51.040;13.722;2023-02-28T09:19:11;101421.91;;;0.86;66.13
76448;BME280;65284;51.040;13.722;2023-02-28T09:21:38;101421.78;;;0.89;65.82
76448;BME280;65284;51.040;13.722;2023-02-28T09:24:04;101413.84;;;0.91;66.06
76448;BME280;65284;51.040;13.722;2023-02-28T09:26:31;101418.66;;;1.22;66.67
76448;BME280;65284;51.040;13.722;2023-02-28T09:29:08;101417.31;;;1.32;66.64
76448;BME280;65284;51.040;13.722;2023-02-28T09:31:35;101412.88;;;1.34;64.16
76448;BME280;65284;51.040;13.722;2023-02-28T09:34:01;101418.22;;;1.12;62.69
76448;BME280;65284;51.040;13.722;2023-02-28T09:36:28;101412.75;;;0.97;61.64
76448;BME280;65284;51.040;13.722;2023-02-28T09:39:09;101404.06;;;0.96;62.17
76448;BME280;65284;51.040;13.722;2023-02-28T09:41:41;101407.78;;;0.90;64.29
76448;BME280;65284;51.040;13.722;2023-02-28T09:44:35;101407.41;;;1.00;63.77
76448;BME280;65284;51.040;13.722;2023-02-28T09:47:14;101398.88;;;0.95;63.00
76448;BME280;65284;51.040;13.722;2023-02-28T09:49:47;101410.09;;;0.98;63.10
76448;BME280;65284;51.040;13.722;2023-02-28T09:52:17;101409.13;;;1.01;62.36
76448;BME280;65284;51.040;13.722;2023-02-28T09:54:45;101412.09;;;1.12;62.36
76448;BME280;65284;51.040;13.722;2023-02-28T09:57:19;101408.84;;;1.07;62.01
76448;BME280;65284;51.040;13.722;2023-02-28T09:59:56;101410.28;;;1.14;60.80
76448;BME280;65284;51.040;13.722;2023-02-28T10:02:46;101414.44;;;1.18;60.03
76448;BME280;65284;51.040;13.722;2023-02-28T10:05:20;101402.81;;;1.25;59.01
76448;BME280;65284;51.040;13.722;2023-02-28T10:08:09;101402.69;;;1.28;58.54
76448;BME280;65284;51.040;13.722;2023-02-28T10:10:43;101404.91;;;1.38;58.46
76448;BME280;65284;51.040;13.722;2023-02-28T10:13:33;101399.34;;;1.45;58.49
76448;BME280;65284;51.040;13.722;2023-02-28T10:16:11;101407.50;;;1.38;58.87
76448;BME280;65284;51.040;13.722;2023-02-28T10:18:49;101408.91;;;1.26;58.95
76448;BME280;65284;51.040;13.722;2023-02-28T10:21:28;101408.59;;;1.13;59.10
76448;BME280;65284;51.040;13.722;2023-02-28T10:24:03;101406.59;;;1.18;58.79
76448;BME280;65284;51.040;13.722;2023-02-28T10:26:31;101407.53;;;1.17;58.52
76448;BME280;65284;51.040;13.722;2023-02-28T10:28:58;101411.69;;;1.21;59.25
76448;BME280;65284;51.040;13.722;2023-02-28T10:31:25;101414.13;;;1.26;59.21
76448;BME280;65284;51.040;13.722;2023-02-28T10:33:51;101420.22;;;1.26;58.58
76448;BME280;65284;51.040;13.722;2023-02-28T10:36:20;101417.47;;;1.09;58.27
76448;BME280;65284;51.040;13.722;2023-02-28T10:38:48;101414.09;;;1.07;58.55
76448;BME280;65284;51.040;13.722;2023-02-28T10:41:26;101417.59;;;1.06;58.70
76448;BME280;65284;51.040;13.722;2023-02-28T10:44:13;101413.81;;;1.13;59.77
76448;BME280;65284;51.040;13.722;2023-02-28T10:46:41;101411.00;;;1.18;60.04
76448;BME280;65284;51.040;13.722;2023-02-28T10:49:14;101410.31;;;1.33;59.51
76448;BME280;65284;51.040;13.722;2023-02-28T10:51:43;101412.63;;;1.20;59.50
76448;BME280;65284;51.040;13.722;2023-02-28T10:54:19;101413.94;;;1.10;58.59
76448;BME280;65284;51.040;13.722;2023-02-28T10:57:05;101398.25;;;1.10;59.80
76448;BME280;65284;51.040;13.722;2023-02-28T10:59:33;101399.81;;;1.14;59.46
76448;BME280;65284;51.040;13.722;2023-02-28T11:01:59;101399.81;;;1.14;60.30
76448;BME280;65284;51.040;13.722;2023-02-28T11:07:19;101398.13;;;1.13;59.12
76448;BME280;65284;51.040;13.722;2023-02-28T11:09:51;101385.66;;;1.18;59.19
76448;BME280;65284;51.040;13.722;2023-02-28T11:12:20;101389.22;;;1.17;58.99
76448;BME280;65284;51.040;13.722;2023-02-28T11:14:50;101373.78;;;1.11;59.70
76448;BME280;65284;51.040;13.722;2023-02-28T11:17:26;101379.25;;;1.25;59.18
76448;BME280;65284;51.040;13.722;2023-02-28T11:19:57;101379.91;;;1.30;59.07
76448;BME280;65284;51.040;13.722;2023-02-28T11:22:27;101375.31;;;1.35;58.67
76448;BME280;65284;51.040;13.722;2023-02-28T11:24:59;101372.94;;;1.50;58.54
76448;BME280;65284;51.040;13.722;2023-02-28T11:27:40;101377.00;;;1.57;59.33
76448;BME280;65284;51.040;13.722;2023-02-28T11:30:33;101365.25;;;1.66;59.11
76448;BME280;65284;51.040;13.722;2023-02-28T11:33:01;101363.94;;;1.74;58.94
76448;BME280;65284;51.040;13.722;2023-02-28T11:35:45;101366.50;;;1.76;58.62
76448;BME280;65284;51.040;13.722;2023-02-28T11:38:12;101357.94;;;1.72;57.78
76448;BME280;65284;51.040;13.722;2023-02-28T11:40:45;101359.50;;;1.76;58.30
76448;BME280;65284;51.040;13.722;2023-02-28T11:51:14;101359.28;;;1.62;57.25
76448;BME280;65284;51.040;13.722;2023-02-28T11:54:03;101357.72;;;1.58;57.65
76448;BME280;65284;51.040;13.722;2023-02-28T11:56:50;101360.25;;;1.59;56.58
76448;BME280;65284;51.040;13.722;2023-02-28T12:02:29;101342.53;;;1.66;57.84
76448;BME280;65284;51.040;13.722;2023-02-28T12:05:11;101339.91;;;1.66;57.50
76448;BME280;65284;51.040;13.722;2023-02-28T12:07:51;101346.84;;;1.67;57.95
76448;BME280;65284;51.040;13.722;2023-02-28T12:10:24;101350.66;;;1.60;56.98
76448;BME280;65284;51.040;13.722;2023-02-28T12:15:58;101337.44;;;1.63;57.38
76448;BME280;65284;51.040;13.722;2023-02-28T12:18:48;101339.31;;;1.59;56.54
76448;BME280;65284;51.040;13.722;2023-02-28T12:24:36;101334.38;;;1.72;58.73
76448;BME280;65284;51.040;13.722;2023-02-28T12:27:10;101330.25;;;1.86;57.52
76448;BME280;65284;51.040;13.722;2023-02-28T12:29:49;101328.13;;;1.94;57.85
76448;BME280;65284;51.040;13.722;2023-02-28T12:32:40;101332.91;;;2.03;57.58
76448;BME280;65284;51.040;13.722;2023-02-28T12:37:40;101343.81;;;2.13;57.29
76448;BME280;65284;51.040;13.722;2023-02-28T12:40:13;101338.47;;;1.97;56.04
76448;BME280;65284;51.040;13.722;2023-02-28T12:42:48;101342.00;;;1.96;56.61
76448;BME280;65284;51.040;13.722;2023-02-28T12:45:19;101330.69;;;1.95;56.98
76448;BME280;65284;51.040;13.722;2023-02-28T12:47:50;101326.44;;;1.93;57.31
76448;BME280;65284;51.040;13.722;2023-02-28T12:50:19;101325.84;;;2.05;57.85
76448;BME280;65284;51.040;13.722;2023-02-28T12:53:22;101329.72;;;2.15;57.47
76448;BME280;65284;51.040;13.722;2023-02-28T12:56:03;101324.50;;;2.33;57.62
76448;BME280;65284;51.040;13.722;2023-02-28T12:58:53;101318.09;;;2.38;56.93
76448;BME280;65284;51.040;13.722;2023-02-28T13:01:29;101321.81;;;2.34;57.09
76448;BME280;65284;51.040;13.722;2023-02-28T13:04:32;101322.25;;;2.25;57.72
76448;BME280;65284;51.040;13.722;2023-02-28T13:07:29;101316.53;;;2.17;57.34
76448;BME280;65284;51.040;13.722;2023-02-28T13:09:59;101323.72;;;2.13;57.28
76448;BME280;65284;51.040;13.722;2023-02-28T13:12:27;101319.53;;;2.09;56.95
76448;BME280;65284;51.040;13.722;2023-02-28T13:15:17;101324.16;;;1.85;57.23
76448;BME280;65284;51.040;13.722;2023-02-28T13:17:52;101315.56;;;1.64;57.40
76448;BME280;65284;51.040;13.722;2023-02-28T13:20:25;101328.16;;;1.75;59.11
76448;BME280;65284;51.040;13.722;2023-02-28T13:22:56;101326.25;;;1.78;58.31
76448;BME280;65284;51.040;13.722;2023-02-28T13:28:12;101317.94;;;1.88;58.28
76448;BME280;65284;51.040;13.722;2023-02-28T13:38:48;101311.19;;;2.01;58.67
76448;BME280;65284;51.040;13.722;2023-02-28T13:41:41;101314.38;;;1.89;57.47
76448;BME280;65284;51.040;13.722;2023-02-28T13:51:50;101306.69;;;1.86;57.53
76448;BME280;65284;51.040;13.722;2023-02-28T13:54:29;101297.94;;;2.04;56.57
76448;BME280;65284;51.040;13.722;2023-02-28T14:00:05;101295.94;;;2.09;57.92
76448;BME280;65284;51.040;13.722;2023-02-28T14:02:48;101298.50;;;2.11;57.79
76448;BME280;65284;51.040;13.722;2023-02-28T14:05:20;101297.81;;;2.07;57.46
76448;BME280;65284;51.040;13.722;2023-02-28T14:07:57;101288.63;;;2.16;58.11